createdAt,value
2019-05-06T00:00:58.914Z,8.43
2019-05-06T00:03:24.887Z,10.40
2019-05-06T00:05:54.476Z,6.23
2019-05-06T00:08:23.796Z,7.73
2019-05-06T00:10:54.268Z,8.80
2019-05-06T00:13:24.239Z,6.73
2019-05-06T00:15:54.419Z,6.33
2019-05-06T00:18:24.507Z,8.73
2019-05-06T00:20:54.785Z,8.07
2019-05-06T00:23:37.769Z,8.43
2019-05-06T00:26:21.418Z,7.83
2019-05-06T00:28:56.994Z,7.70
2019-05-06T00:31:26.147Z,6.83
2019-05-06T00:33:55.347Z,11.50
2019-05-06T00:36:24.488Z,10.37
2019-05-06T00:38:56.712Z,9.37
2019-05-06T00:41:31.374Z,7.93
2019-05-06T00:44:00.669Z,5.90
2019-05-06T00:46:29.790Z,6.83
2019-05-06T00:48:59.125Z,11.40
2019-05-06T00:51:28.279Z,9.73
2019-05-06T00:54:03.990Z,7.03
2019-05-06T00:56:34.074Z,7.97
2019-05-06T00:59:03.945Z,11.00
2019-05-06T01:01:34.543Z,7.07
2019-05-06T01:04:05.114Z,6.63
2019-05-06T01:06:34.752Z,8.37
2019-05-06T01:09:06.946Z,6.40
2019-05-06T01:11:36.139Z,6.47
2019-05-06T01:14:09.932Z,8.67
2019-05-06T01:16:39.679Z,7.27
2019-05-06T01:19:08.912Z,6.90
2019-05-06T01:21:38.426Z,10.17
2019-05-06T01:24:07.581Z,9.57
2019-05-06T01:26:36.816Z,5.47
2019-05-06T01:29:25.059Z,6.40
2019-05-06T01:31:54.621Z,8.73
2019-05-06T01:34:24.623Z,8.47
2019-05-06T01:36:54.656Z,8.20
2019-05-06T01:39:51.627Z,8.27
2019-05-06T01:42:26.927Z,5.70
2019-05-06T01:44:56.163Z,9.43
2019-05-06T01:47:25.292Z,10.70
2019-05-06T01:49:54.668Z,7.03
2019-05-06T01:52:24.137Z,7.57
2019-05-06T01:54:54.245Z,4.30
2019-05-06T01:57:24.457Z,9.73
2019-05-06T01:59:54.155Z,5.33
2019-05-06T02:02:24.037Z,5.20
2019-05-06T02:04:54.038Z,6.37
2019-05-06T02:07:24.194Z,4.40
2019-05-06T02:09:54.269Z,7.30
2019-05-06T02:12:24.611Z,5.93
2019-05-06T02:14:54.351Z,7.57
2019-05-06T02:17:24.033Z,3.93
2019-05-06T02:19:54.625Z,4.87
2019-05-06T02:22:34.708Z,5.10
2019-05-06T02:25:14.311Z,8.10
2019-05-06T02:27:44.515Z,4.10
2019-05-06T02:30:25.321Z,5.97
2019-05-06T02:33:19.776Z,5.43
2019-05-06T02:36:01.904Z,4.63
2019-05-06T02:38:39.212Z,5.43
2019-05-06T02:41:04.095Z,6.60
2019-05-06T02:43:34.527Z,5.63
2019-05-06T02:46:04.493Z,5.47
2019-05-06T02:49:03.915Z,3.07
2019-05-06T02:51:33.445Z,4.00
2019-05-06T02:54:03.366Z,3.77
2019-05-06T02:56:33.322Z,7.40
2019-05-06T02:59:03.962Z,6.83
2019-05-06T03:01:33.991Z,8.17
2019-05-06T03:04:04.578Z,6.00
2019-05-06T03:06:34.127Z,5.93
2019-05-06T03:09:04.196Z,4.00
2019-05-06T03:11:33.359Z,7.70
2019-05-06T03:14:03.408Z,4.87
2019-05-06T03:16:33.483Z,4.93
2019-05-06T03:19:04.165Z,4.37
2019-05-06T03:22:13.303Z,5.00
2019-05-06T03:24:45.128Z,6.13
2019-05-06T03:27:14.514Z,5.57
2019-05-06T03:29:44.682Z,6.03
2019-05-06T03:32:21.535Z,5.63
2019-05-06T03:35:00.987Z,6.03
2019-05-06T03:37:17.305Z,9.17
2019-05-06T03:39:46.898Z,6.40
2019-05-06T03:42:16.776Z,5.83
2019-05-06T03:44:49.243Z,8.93
2019-05-06T03:47:43.594Z,4.60
2019-05-06T03:50:13.399Z,10.77
2019-05-06T03:52:44.245Z,6.77
2019-05-06T03:55:14.016Z,7.00
2019-05-06T03:57:44.113Z,7.50
2019-05-06T04:00:16.045Z,6.77
2019-05-06T04:02:45.864Z,6.20
2019-05-06T04:05:15.217Z,9.23
2019-05-06T04:07:45.986Z,8.00
2019-05-06T04:10:15.917Z,9.47
2019-05-06T04:12:45.463Z,8.80
2019-05-06T04:15:15.393Z,6.20
2019-05-06T04:17:52.817Z,7.43
2019-05-06T04:20:43.656Z,8.20
2019-05-06T04:23:23.457Z,11.03
2019-05-06T04:26:13.374Z,6.77
2019-05-06T04:28:43.491Z,10.43
2019-05-06T04:31:13.418Z,10.10
2019-05-06T04:33:55.476Z,12.43
2019-05-06T04:36:13.965Z,8.67
2019-05-06T04:38:43.500Z,11.27
2019-05-06T04:41:13.801Z,11.43
2019-05-06T04:43:44.003Z,13.33
2019-05-06T04:46:16.941Z,10.53
2019-05-06T04:48:45.373Z,8.67
2019-05-06T04:51:14.529Z,10.20
2019-05-06T04:53:44.296Z,7.47
2019-05-06T04:56:14.558Z,11.90
2019-05-06T04:58:44.388Z,8.70
2019-05-06T05:01:15.750Z,10.57
2019-05-06T05:03:44.492Z,9.07
2019-05-06T05:06:13.792Z,12.03
2019-05-06T05:08:43.340Z,10.27
2019-05-06T05:11:22.590Z,9.70
2019-05-06T05:14:25.605Z,8.63
2019-05-06T05:17:02.189Z,8.47
2019-05-06T05:19:32.751Z,12.07
2019-05-06T05:22:08.588Z,9.83
2019-05-06T05:24:38.718Z,10.13
2019-05-06T05:27:07.880Z,9.60
2019-05-06T05:29:37.313Z,8.77
2019-05-06T05:32:06.503Z,11.47
2019-05-06T05:34:39.849Z,9.77
2019-05-06T05:37:06.578Z,9.30
2019-05-06T05:39:35.715Z,10.70
2019-05-06T05:42:16.493Z,11.23
2019-05-06T05:44:46.769Z,11.27
2019-05-06T05:47:15.948Z,13.00
2019-05-06T05:50:13.277Z,11.27
2019-05-06T05:52:42.889Z,11.53
2019-05-06T05:55:12.375Z,12.30
2019-05-06T05:57:43.258Z,13.20
2019-05-06T06:00:33.488Z,10.03
2019-05-06T06:03:02.993Z,9.63
2019-05-06T06:05:32.988Z,8.90
2019-05-06T06:08:02.962Z,9.90
2019-05-06T06:10:44.515Z,9.10
2019-05-06T06:13:13.696Z,9.43
2019-05-06T06:16:12.998Z,10.73
2019-05-06T06:19:03.211Z,12.90
2019-05-06T06:21:39.291Z,6.83
2019-05-06T06:24:22.505Z,6.17
2019-05-06T06:26:55.776Z,7.03
2019-05-06T06:29:26.449Z,5.17
2019-05-06T06:32:15.254Z,6.53
2019-05-06T06:35:06.640Z,6.50
2019-05-06T06:37:45.819Z,6.07
2019-05-06T06:40:17.505Z,6.87
2019-05-06T06:42:52.437Z,7.97
2019-05-06T06:45:23.034Z,6.83
2019-05-06T06:47:52.435Z,6.20
2019-05-06T06:50:22.156Z,7.40
2019-05-06T06:52:52.556Z,8.70
2019-05-06T06:55:22.543Z,6.90
2019-05-06T06:58:16.168Z,5.07
2019-05-06T07:01:20.305Z,8.97
2019-05-06T07:04:10.529Z,7.00
2019-05-06T07:06:42.319Z,5.57
2019-05-06T07:09:12.522Z,8.30
2019-05-06T07:11:42.880Z,7.27
2019-05-06T07:14:33.339Z,8.33
2019-05-06T07:16:53.342Z,4.90
2019-05-06T07:19:38.823Z,6.83
2019-05-06T07:22:07.759Z,8.17
2019-05-06T07:24:37.345Z,5.80
2019-05-06T07:27:12.613Z,5.85
2019-05-06T07:29:48.414Z,7.93
2019-05-06T07:32:12.874Z,9.13
2019-05-06T07:34:44.112Z,8.60
2019-05-06T07:37:13.313Z,12.43
2019-05-06T07:39:43.094Z,6.17
2019-05-06T07:42:26.032Z,8.43
2019-05-06T07:45:29.740Z,7.87
2019-05-06T07:48:03.563Z,6.97
2019-05-06T07:50:33.313Z,8.23
2019-05-06T07:53:13.354Z,7.75
2019-05-06T07:55:42.651Z,10.63
2019-05-06T07:58:13.826Z,9.43
2019-05-06T08:00:42.745Z,7.95
2019-05-06T08:03:14.010Z,7.12
2019-05-06T08:05:55.240Z,12.80
2019-05-06T08:08:13.795Z,12.30
2019-05-06T08:10:42.894Z,11.28
2019-05-06T08:13:13.024Z,11.65
2019-05-06T08:15:42.344Z,14.83
2019-05-06T08:18:12.626Z,11.68
2019-05-06T08:20:42.747Z,9.65
2019-05-06T08:23:32.548Z,11.75
2019-05-06T08:26:10.038Z,11.53
2019-05-06T08:28:41.026Z,13.08
2019-05-06T08:31:04.268Z,11.88
2019-05-06T08:33:33.456Z,14.13
2019-05-06T08:36:11.719Z,11.85
2019-05-06T08:38:53.274Z,13.00
2019-05-06T08:41:22.908Z,10.43
2019-05-06T08:43:52.808Z,11.97
2019-05-06T08:46:27.991Z,10.98
2019-05-06T08:48:57.327Z,8.93
2019-05-06T08:51:38.559Z,9.10
2019-05-06T08:54:13.327Z,12.43
2019-05-06T08:56:42.802Z,9.50
2019-05-06T08:59:13.902Z,10.25
2019-05-06T09:01:46.963Z,10.68
2019-05-06T09:04:16.633Z,11.68
2019-05-06T09:06:46.177Z,8.80
2019-05-06T09:09:15.532Z,11.88
2019-05-06T09:11:44.728Z,9.70
2019-05-06T09:14:14.298Z,13.10
2019-05-06T09:16:44.250Z,11.70
2019-05-06T09:19:13.766Z,13.90
2019-05-06T09:21:46.043Z,11.10
2019-05-06T09:24:14.133Z,11.55
2019-05-06T09:26:47.712Z,13.50
2019-05-06T09:29:29.395Z,11.18
2019-05-06T09:32:04.650Z,13.03
2019-05-06T09:34:46.384Z,13.55
2019-05-06T09:37:17.255Z,12.23
2019-05-06T09:39:47.095Z,12.43
2019-05-06T09:42:16.662Z,12.95
2019-05-06T09:44:50.225Z,16.42
2019-05-06T09:47:35.877Z,14.10
2019-05-06T09:50:07.594Z,16.20
2019-05-06T09:52:36.863Z,13.30
2019-05-06T09:55:25.815Z,14.98
2019-05-06T09:58:12.967Z,15.23
2019-05-06T10:00:44.331Z,14.78
2019-05-06T10:03:13.740Z,12.68
2019-05-06T10:05:43.050Z,13.20
2019-05-06T10:08:12.578Z,13.58
2019-05-06T10:10:55.302Z,14.13
2019-05-06T10:13:13.024Z,11.63
2019-05-06T10:15:42.816Z,13.80
2019-05-06T10:18:13.326Z,11.12
2019-05-06T10:20:47.824Z,17.02
2019-05-06T10:23:17.261Z,12.03
2019-05-06T10:25:46.587Z,12.43
2019-05-06T10:28:44.234Z,10.65
2019-05-06T10:31:15.832Z,13.88
2019-05-06T10:34:03.404Z,12.25
2019-05-06T10:37:11.655Z,12.55
2019-05-06T10:39:33.149Z,13.68
2019-05-06T10:42:13.204Z,15.20
2019-05-06T10:45:32.733Z,11.35
2019-05-06T10:48:02.412Z,11.43
2019-05-06T10:50:36.005Z,10.50
2019-05-06T10:53:19.752Z,11.65
2019-05-06T10:55:53.673Z,11.80
2019-05-06T10:58:22.963Z,7.85
2019-05-06T11:01:09.533Z,11.12
2019-05-06T11:03:38.878Z,8.85
2019-05-06T11:06:08.041Z,9.73
2019-05-06T11:08:37.423Z,9.23
2019-05-06T11:11:15.408Z,12.65
2019-05-06T11:13:37.532Z,9.38
2019-05-06T11:16:06.712Z,12.82
2019-05-06T11:18:35.852Z,8.93
2019-05-06T11:21:05.251Z,12.05
2019-05-06T11:23:34.557Z,9.70
2019-05-06T11:26:04.091Z,5.45
2019-05-06T11:28:42.967Z,5.72
2019-05-06T11:31:30.126Z,9.53
2019-05-06T11:34:18.427Z,8.13
2019-05-06T11:37:15.036Z,8.55
2019-05-06T11:39:44.280Z,9.05
2019-05-06T11:42:28.141Z,7.55
2019-05-06T11:44:44.457Z,5.80
2019-05-06T11:47:13.900Z,9.23
2019-05-06T11:49:44.148Z,15.83
2019-05-06T11:52:16.506Z,18.80
2019-05-06T11:54:45.711Z,12.40
2019-05-06T11:57:14.908Z,14.63
2019-05-06T11:59:44.929Z,12.03
2019-05-06T12:02:17.215Z,12.15
2019-05-06T12:04:46.500Z,11.40
2019-05-06T12:07:16.271Z,10.05
2019-05-06T12:09:45.901Z,16.42
2019-05-06T12:12:15.292Z,9.65
2019-05-06T12:14:52.504Z,10.93
2019-05-06T12:17:22.278Z,11.20
2019-05-06T12:19:52.839Z,10.13
2019-05-06T12:22:23.999Z,13.38
2019-05-06T12:24:53.553Z,11.30
2019-05-06T12:27:43.029Z,13.03
2019-05-06T12:30:13.263Z,16.62
2019-05-06T12:32:57.031Z,15.38
2019-05-06T12:35:26.365Z,13.38
2019-05-06T12:37:57.800Z,11.33
2019-05-06T12:40:27.004Z,14.83
2019-05-06T12:43:15.218Z,11.60
2019-05-06T12:45:46.030Z,14.20
2019-05-06T12:48:26.963Z,12.13
2019-05-06T12:50:57.942Z,10.58
2019-05-06T12:53:27.393Z,9.88
2019-05-06T12:55:56.895Z,10.55
2019-05-06T12:58:26.357Z,11.28
2019-05-06T13:00:55.651Z,7.50
2019-05-06T13:03:24.786Z,9.78
2019-05-06T13:05:54.110Z,11.68
2019-05-06T13:08:28.668Z,10.98
2019-05-06T13:10:54.314Z,13.35
2019-05-06T13:13:23.565Z,12.65
2019-05-06T13:15:53.043Z,11.43
2019-05-06T13:18:23.152Z,13.18
2019-05-06T13:20:53.041Z,11.55
2019-05-06T13:23:35.392Z,11.35
2019-05-06T13:26:24.284Z,14.00
2019-05-06T13:28:58.339Z,16.00
2019-05-06T13:31:27.523Z,12.55
2019-05-06T13:34:10.448Z,14.93
2019-05-06T13:36:42.600Z,18.65
2019-05-06T13:39:32.685Z,11.28
2019-05-06T13:41:42.223Z,10.32
2019-05-06T13:44:13.444Z,9.78
2019-05-06T13:46:53.674Z,10.67
2019-05-06T13:49:44.777Z,10.85
2019-05-06T13:52:22.777Z,12.35
2019-05-06T13:54:53.013Z,8.75
2019-05-06T13:57:22.631Z,7.53
2019-05-06T13:59:53.273Z,6.22
2019-05-06T14:02:47.940Z,7.33
2019-05-06T14:05:18.940Z,7.62
2019-05-06T14:07:48.097Z,7.97
2019-05-06T14:10:17.705Z,6.45
2019-05-06T14:12:46.968Z,7.23
2019-05-06T14:15:16.382Z,8.28
2019-05-06T14:17:46.276Z,7.58
2019-05-06T14:20:16.044Z,9.70
2019-05-06T14:22:45.427Z,4.37
2019-05-06T14:25:38.713Z,6.95
2019-05-06T14:28:15.745Z,5.80
2019-05-06T14:30:57.709Z,8.03
2019-05-06T14:33:27.170Z,5.78
2019-05-06T14:35:56.581Z,7.83
2019-05-06T14:38:25.833Z,9.68
2019-05-06T14:41:16.939Z,7.37
2019-05-06T14:43:46.087Z,7.10
2019-05-06T14:46:15.304Z,8.47
2019-05-06T14:48:44.409Z,6.10
2019-05-06T14:51:13.639Z,7.10
2019-05-06T14:53:43.680Z,6.70
2019-05-06T14:56:32.355Z,7.23
2019-05-06T14:59:07.935Z,8.30
2019-05-06T15:01:38.997Z,6.80
2019-05-06T15:04:08.240Z,6.80
2019-05-06T15:06:37.380Z,8.80
2019-05-06T15:09:09.545Z,7.87
2019-05-06T15:11:38.792Z,10.55
2019-05-06T15:14:07.974Z,6.72
2019-05-06T15:16:37.288Z,7.37
2019-05-06T15:19:06.499Z,10.30
2019-05-06T15:21:38.384Z,9.37
2019-05-06T15:24:06.687Z,9.05
2019-05-06T15:26:35.910Z,7.83
2019-05-06T15:29:05.092Z,9.00
2019-05-06T15:31:53.655Z,7.85
2019-05-06T15:34:29.000Z,7.78
2019-05-06T15:37:20.414Z,7.33
2019-05-06T15:39:52.083Z,8.65
2019-05-06T15:42:22.427Z,5.65
2019-05-06T15:44:51.724Z,5.47
2019-05-06T15:47:22.727Z,7.08
2019-05-06T15:49:52.654Z,4.83
2019-05-06T15:52:23.445Z,6.87
2019-05-06T15:54:52.995Z,5.10
2019-05-06T15:57:22.886Z,3.83
2019-05-06T15:59:53.167Z,4.15
2019-05-06T16:02:23.236Z,4.90
2019-05-06T16:04:52.839Z,4.95
2019-05-06T16:07:25.405Z,3.55
2019-05-06T16:09:55.283Z,5.10
2019-05-06T16:12:23.852Z,5.60
2019-05-06T16:14:53.219Z,4.35
2019-05-06T16:17:23.854Z,3.08
2019-05-06T16:19:53.275Z,4.75
2019-05-06T16:22:22.792Z,4.42
2019-05-06T16:25:02.661Z,3.77
2019-05-06T16:27:31.449Z,4.33
2019-05-06T16:30:03.363Z,6.30
2019-05-06T16:32:33.237Z,5.03
2019-05-06T16:35:02.716Z,4.33
2019-05-06T16:37:32.998Z,6.85
2019-05-06T16:40:02.923Z,3.45
2019-05-06T16:42:32.342Z,4.33
2019-05-06T16:45:06.937Z,5.37
2019-05-06T16:47:39.290Z,4.43
2019-05-06T16:50:13.455Z,4.10
2019-05-06T16:52:45.630Z,4.95
2019-05-06T16:55:19.513Z,9.90
2019-05-06T16:57:55.831Z,6.00
2019-05-06T17:00:26.995Z,4.97
2019-05-06T17:03:07.435Z,3.63
2019-05-06T17:05:54.655Z,6.03
2019-05-06T17:08:24.135Z,3.70
2019-05-06T17:10:53.256Z,5.57
2019-05-06T17:13:22.827Z,4.58
2019-05-06T17:15:52.902Z,3.60
2019-05-06T17:18:22.762Z,6.87
2019-05-06T17:20:52.202Z,4.80
2019-05-06T17:23:22.425Z,4.13
2019-05-06T17:25:52.165Z,5.03
2019-05-06T17:28:33.624Z,5.57
2019-05-06T17:31:27.777Z,5.30
2019-05-06T17:33:58.284Z,7.45
2019-05-06T17:36:30.013Z,4.90
2019-05-06T17:38:59.364Z,3.83
2019-05-06T17:41:42.428Z,5.80
2019-05-06T17:43:59.777Z,3.50
2019-05-06T17:46:33.038Z,5.83
2019-05-06T17:49:05.285Z,6.90
2019-05-06T17:51:56.404Z,5.80
2019-05-06T17:54:26.030Z,6.80
2019-05-06T17:56:55.779Z,5.08
2019-05-06T17:59:25.092Z,4.65
2019-05-06T18:01:56.580Z,4.30
2019-05-06T18:04:35.018Z,4.27
2019-05-06T18:07:04.232Z,4.62
2019-05-06T18:09:33.606Z,9.43
2019-05-06T18:12:03.263Z,7.83
2019-05-06T18:14:33.237Z,5.37
2019-05-06T18:17:03.633Z,7.25
2019-05-06T18:19:33.830Z,4.30
2019-05-06T18:22:03.296Z,3.17
2019-05-06T18:24:33.234Z,3.05
2019-05-06T18:27:02.976Z,5.80
2019-05-06T18:29:33.507Z,6.40
2019-05-06T18:32:03.898Z,6.87
2019-05-06T18:34:33.362Z,6.50
2019-05-06T18:37:03.168Z,5.97
2019-05-06T18:39:33.905Z,4.93
2019-05-06T18:42:15.747Z,4.40
2019-05-06T18:44:34.260Z,5.17
2019-05-06T18:47:03.634Z,4.30
2019-05-06T18:49:33.828Z,4.55
2019-05-06T18:52:03.343Z,4.70
2019-05-06T18:54:33.890Z,3.47
2019-05-06T18:57:04.979Z,10.90
2019-05-06T18:59:36.935Z,6.33
2019-05-06T19:02:05.388Z,4.40
2019-05-06T19:04:49.035Z,5.78
2019-05-06T19:07:18.351Z,4.23
2019-05-06T19:10:06.492Z,4.85
2019-05-06T19:12:40.784Z,6.53
2019-05-06T19:15:07.159Z,3.12
2019-05-06T19:17:36.258Z,2.75
2019-05-06T19:20:05.746Z,5.90
2019-05-06T19:22:35.127Z,9.28
2019-05-06T19:25:05.315Z,8.95
2019-05-06T19:27:34.510Z,16.15
2019-05-06T19:30:03.991Z,5.28
2019-05-06T19:32:35.259Z,3.12
2019-05-06T19:35:05.681Z,4.80
2019-05-06T19:37:34.921Z,10.47
2019-05-06T19:40:04.567Z,3.60
2019-05-06T19:42:46.122Z,3.90
2019-05-06T19:45:05.467Z,5.37
2019-05-06T19:47:34.712Z,5.03
2019-05-06T19:50:04.873Z,3.27
2019-05-06T19:52:34.199Z,4.80
2019-05-06T19:55:05.907Z,4.27
2019-05-06T19:57:35.101Z,2.63
2019-05-06T20:00:04.699Z,2.47
2019-05-06T20:02:37.195Z,2.87
2019-05-06T20:05:16.941Z,2.97
2019-05-06T20:08:08.219Z,4.53
2019-05-06T20:11:01.855Z,3.50
2019-05-06T20:13:53.154Z,4.63
2019-05-06T20:16:23.050Z,2.97
2019-05-06T20:18:52.640Z,5.00
2019-05-06T20:21:23.049Z,1.87
2019-05-06T20:23:52.684Z,3.20
2019-05-06T20:26:22.259Z,3.27
2019-05-06T20:28:52.612Z,3.98
2019-05-06T20:31:22.615Z,3.53
2019-05-06T20:34:12.885Z,2.83
2019-05-06T20:36:41.980Z,5.92
2019-05-06T20:39:12.203Z,4.87
2019-05-06T20:41:42.470Z,3.30
2019-05-06T20:44:12.337Z,3.37
2019-05-06T20:46:42.939Z,4.60
2019-05-06T20:49:13.191Z,4.17
2019-05-06T20:51:42.587Z,6.27
2019-05-06T20:54:12.984Z,8.53
2019-05-06T20:56:42.393Z,6.17
2019-05-06T20:59:12.288Z,5.47
2019-05-06T21:01:42.497Z,5.87
2019-05-06T21:04:13.054Z,4.60
2019-05-06T21:06:42.739Z,4.87
2019-05-06T21:09:12.594Z,11.33
2019-05-06T21:12:01.358Z,8.13
2019-05-06T21:14:32.338Z,9.37
2019-05-06T21:17:02.558Z,5.60
2019-05-06T21:19:33.185Z,5.17
2019-05-06T21:22:02.673Z,4.47
2019-05-06T21:24:33.296Z,5.87
2019-05-06T21:27:03.942Z,4.97
2019-05-06T21:29:33.311Z,3.90
2019-05-06T21:32:02.955Z,5.63
2019-05-06T21:34:32.777Z,5.90
2019-05-06T21:37:03.122Z,4.13
2019-05-06T21:39:32.789Z,7.20
2019-05-06T21:42:02.440Z,4.37
2019-05-06T21:44:32.570Z,4.83
2019-05-06T21:47:02.885Z,5.93
2019-05-06T21:49:32.846Z,4.00
2019-05-06T21:52:02.938Z,5.90
2019-05-06T21:54:32.811Z,4.97
2019-05-06T21:57:02.898Z,6.27
2019-05-06T21:59:32.730Z,4.07
2019-05-06T22:02:04.212Z,4.33
2019-05-06T22:04:34.189Z,4.27
2019-05-06T22:07:03.876Z,4.83
2019-05-06T22:09:33.338Z,5.13
2019-05-06T22:12:03.266Z,6.43
2019-05-06T22:14:42.312Z,5.27
2019-05-06T22:17:13.951Z,3.97
2019-05-06T22:19:43.030Z,5.50
2019-05-06T22:22:14.686Z,4.57
2019-05-06T22:24:48.760Z,5.53
2019-05-06T22:27:18.811Z,3.67
2019-05-06T22:29:52.225Z,4.53
2019-05-06T22:32:23.154Z,5.13
2019-05-06T22:34:52.640Z,5.60
2019-05-06T22:37:22.184Z,3.93
2019-05-06T22:39:52.723Z,3.97
2019-05-06T22:42:22.585Z,5.70
2019-05-06T22:44:52.982Z,4.97
2019-05-06T22:47:23.074Z,5.07
2019-05-06T22:49:54.261Z,6.50
2019-05-06T22:52:23.420Z,4.63
2019-05-06T22:54:52.845Z,11.63
2019-05-06T22:57:23.506Z,6.37
2019-05-06T22:59:53.209Z,4.80
2019-05-06T23:02:34.590Z,6.00
2019-05-06T23:05:04.505Z,7.03
2019-05-06T23:07:34.235Z,6.83
2019-05-06T23:10:03.682Z,5.97
2019-05-06T23:12:33.026Z,10.00
2019-05-06T23:15:02.768Z,6.30
2019-05-06T23:17:34.217Z,7.40
2019-05-06T23:20:03.019Z,10.57
2019-05-06T23:22:32.156Z,8.50
2019-05-06T23:25:02.261Z,8.53
2019-05-06T23:27:31.788Z,7.47
2019-05-06T23:30:03.052Z,8.33
2019-05-06T23:32:32.612Z,6.90
2019-05-06T23:35:03.263Z,7.13
2019-05-06T23:37:30.998Z,8.97
2019-05-06T23:40:42.525Z,8.50
2019-05-06T23:43:47.486Z,8.33
2019-05-06T23:46:52.919Z,7.17
2019-05-06T23:49:58.255Z,5.87
2019-05-06T23:53:03.429Z,6.73
2019-05-06T23:56:08.808Z,7.80
2019-05-06T23:58:38.121Z,8.07
